Terminal Aerodrome Forecast
Issued by NWS

Home | Current Version | Previous Version | Graphics & Text | Print | Product List | Glossary On
Versions: 1 2 3 4 5 6 7 8 9 10 11 12 13
000
FTUS43 KICT 190800 AAA
TAFSLN
TAF AMD
KSLN 190800Z 1908/2006 20010KT P6SM BKN150
     FM191900 19014KT P6SM SCT250
     FM200100 17010KT P6SM SCT250=

USA.gov is the U.S. government's official web portal to all federal, state and local government web resources and services.